sensor_id;sensor_type;location;lat;lon;timestamp;temperature;humidity
14962;DHT22;56489;53.166;10.864;2022-09-20T00:03:38;6.80;99.90
14962;DHT22;56489;53.166;10.864;2022-09-20T00:06:07;6.70;99.90
14962;DHT22;56489;53.166;10.864;2022-09-20T00:08:35;6.70;99.90
14962;DHT22;56489;53.166;10.864;2022-09-20T00:11:06;6.70;99.90
14962;DHT22;56489;53.166;10.864;2022-09-20T00:13:35;6.70;99.90
14962;DHT22;56489;53.166;10.864;2022-09-20T00:16:07;6.70;99.90
14962;DHT22;56489;53.166;10.864;2022-09-20T00:18:35;6.60;99.90
14962;DHT22;56489;53.166;10.864;2022-09-20T00:21:03;6.60;99.90
14962;DHT22;56489;53.166;10.864;2022-09-20T00:23:30;6.60;99.90
14962;DHT22;56489;53.166;10.864;2022-09-20T00:26:02;6.50;99.90
14962;DHT22;56489;53.166;10.864;2022-09-20T00:28:31;6.50;99.90
14962;DHT22;56489;53.166;10.864;2022-09-20T00:30:58;6.50;99.90
14962;DHT22;56489;53.166;10.864;2022-09-20T00:33:25;6.40;99.90
14962;DHT22;56489;53.166;10.864;2022-09-20T00:36:15;6.40;99.90
14962;DHT22;56489;53.166;10.864;2022-09-20T00:38:42;6.40;99.90
14962;DHT22;56489;53.166;10.864;2022-09-20T00:41:09;6.40;99.90
14962;DHT22;56489;53.166;10.864;2022-09-20T00:43:41;6.40;99.90
14962;DHT22;56489;53.166;10.864;2022-09-20T00:46:25;6.60;99.90
14962;DHT22;56489;53.166;10.864;2022-09-20T00:48:59;6.40;99.90
14962;DHT22;56489;53.166;10.864;2022-09-20T00:51:31;6.30;99.90
14962;DHT22;56489;53.166;10.864;2022-09-20T00:54:02;6.40;99.90
14962;DHT22;56489;53.166;10.864;2022-09-20T00:56:32;6.40;99.90
14962;DHT22;56489;53.166;10.864;2022-09-20T00:59:15;6.40;99.90
14962;DHT22;56489;53.166;10.864;2022-09-20T01:01:45;6.40;99.90
14962;DHT22;56489;53.166;10.864;2022-09-20T01:04:14;6.30;99.90
14962;DHT22;56489;53.166;10.864;2022-09-20T01:06:43;6.30;99.90
14962;DHT22;56489;53.166;10.864;2022-09-20T01:09:11;6.30;99.90
14962;DHT22;56489;53.166;10.864;2022-09-20T01:11:38;6.30;99.90
14962;DHT22;56489;53.166;10.864;2022-09-20T01:14:06;6.20;99.90
14962;DHT22;56489;53.166;10.864;2022-09-20T01:16:33;6.30;99.90
14962;DHT22;56489;53.166;10.864;2022-09-20T01:19:12;6.20;99.90
14962;DHT22;56489;53.166;10.864;2022-09-20T01:21:40;6.20;99.90
14962;DHT22;56489;53.166;10.864;2022-09-20T01:27:08;6.10;99.90
14962;DHT22;56489;53.166;10.864;2022-09-20T01:30:25;6.10;99.90
14962;DHT22;56489;53.166;10.864;2022-09-20T01:33:03;6.10;99.90
14962;DHT22;56489;53.166;10.864;2022-09-20T01:35:33;6.10;99.90
14962;DHT22;56489;53.166;10.864;2022-09-20T01:43:50;6.10;99.90
14962;DHT22;56489;53.166;10.864;2022-09-20T01:46:32;6.10;99.90
14962;DHT22;56489;53.166;10.864;2022-09-20T01:52:27;6.00;99.90
14962;DHT22;56489;53.166;10.864;2022-09-20T01:55:07;6.00;99.90
14962;DHT22;56489;53.166;10.864;2022-09-20T01:57:47;6.00;99.90
14962;DHT22;56489;53.166;10.864;2022-09-20T02:00:27;5.90;99.90
14962;DHT22;56489;53.166;10.864;2022-09-20T02:06:12;5.90;99.90
14962;DHT22;56489;53.166;10.864;2022-09-20T02:09:12;5.80;99.90
14962;DHT22;56489;53.166;10.864;2022-09-20T02:14:34;5.80;99.90
14962;DHT22;56489;53.166;10.864;2022-09-20T02:17:13;5.70;99.90
14962;DHT22;56489;53.166;10.864;2022-09-20T02:19:50;5.80;99.90
14962;DHT22;56489;53.166;10.864;2022-09-20T02:22:27;5.70;99.90
14962;DHT22;56489;53.166;10.864;2022-09-20T02:25:19;5.70;99.90
14962;DHT22;56489;53.166;10.864;2022-09-20T02:28:06;5.70;99.90
14962;DHT22;56489;53.166;10.864;2022-09-20T02:34:06;5.70;99.90
14962;DHT22;56489;53.166;10.864;2022-09-20T02:39:34;5.70;99.90
14962;DHT22;56489;53.166;10.864;2022-09-20T02:42:10;5.60;99.90
14962;DHT22;56489;53.166;10.864;2022-09-20T02:47:41;5.60;99.90
14962;DHT22;56489;53.166;10.864;2022-09-20T02:50:41;5.60;99.90
14962;DHT22;56489;53.166;10.864;2022-09-20T02:53:33;5.60;99.90
14962;DHT22;56489;53.166;10.864;2022-09-20T02:56:33;5.60;99.90
14962;DHT22;56489;53.166;10.864;2022-09-20T02:59:05;5.50;99.90
14962;DHT22;56489;53.166;10.864;2022-09-20T03:01:55;5.40;99.90
14962;DHT22;56489;53.166;10.864;2022-09-20T03:04:58;5.50;99.90
14962;DHT22;56489;53.166;10.864;2022-09-20T03:07:45;5.50;99.90
14962;DHT22;56489;53.166;10.864;2022-09-20T03:10:24;5.50;99.90
14962;DHT22;56489;53.166;10.864;2022-09-20T03:16:08;5.40;99.90
14962;DHT22;56489;53.166;10.864;2022-09-20T03:19:12;5.40;99.90
14962;DHT22;56489;53.166;10.864;2022-09-20T03:21:59;5.40;99.90
14962;DHT22;56489;53.166;10.864;2022-09-20T03:25:03;5.40;99.90
14962;DHT22;56489;53.166;10.864;2022-09-20T03:33:43;5.30;99.90
14962;DHT22;56489;53.166;10.864;2022-09-20T03:39:49;5.30;99.90
14962;DHT22;56489;53.166;10.864;2022-09-20T03:42:24;5.30;99.90
14962;DHT22;56489;53.166;10.864;2022-09-20T03:51:11;5.30;99.90
14962;DHT22;56489;53.166;10.864;2022-09-20T03:53:57;5.20;99.90
14962;DHT22;56489;53.166;10.864;2022-09-20T03:56:53;5.30;99.90
14962;DHT22;56489;53.166;10.864;2022-09-20T04:02:32;5.30;99.90
14962;DHT22;56489;53.166;10.864;2022-09-20T04:05:06;5.20;99.90
14962;DHT22;56489;53.166;10.864;2022-09-20T04:08:03;5.30;99.90
14962;DHT22;56489;53.166;10.864;2022-09-20T04:11:12;5.30;99.90
14962;DHT22;56489;53.166;10.864;2022-09-20T04:14:08;5.30;99.90
14962;DHT22;56489;53.166;10.864;2022-09-20T04:16:52;5.30;99.90
14962;DHT22;56489;53.166;10.864;2022-09-20T04:22:28;5.30;99.90
14962;DHT22;56489;53.166;10.864;2022-09-20T04:25:01;5.40;99.90
14962;DHT22;56489;53.166;10.864;2022-09-20T04:27:41;5.40;99.90
14962;DHT22;56489;53.166;10.864;2022-09-20T04:30:22;5.40;99.90
14962;DHT22;56489;53.166;10.864;2022-09-20T04:36:12;5.70;99.90
14962;DHT22;56489;53.166;10.864;2022-09-20T04:45:15;6.10;99.90
14962;DHT22;56489;53.166;10.864;2022-09-20T04:53:59;6.30;99.90
14962;DHT22;56489;53.166;10.864;2022-09-20T05:06:02;6.80;99.90
14962;DHT22;56489;53.166;10.864;2022-09-20T05:08:53;7.00;99.90
14962;DHT22;56489;53.166;10.864;2022-09-20T05:17:43;7.50;99.90
14962;DHT22;56489;53.166;10.864;2022-09-20T05:20:45;7.70;99.90
14962;DHT22;56489;53.166;10.864;2022-09-20T05:23:41;7.80;99.90
14962;DHT22;56489;53.166;10.864;2022-09-20T05:29:03;8.10;99.90
14962;DHT22;56489;53.166;10.864;2022-09-20T05:32:02;8.10;99.90
14962;DHT22;56489;53.166;10.864;2022-09-20T05:37:50;8.30;99.90
14962;DHT22;56489;53.166;10.864;2022-09-20T05:40:37;8.40;99.90
14962;DHT22;56489;53.166;10.864;2022-09-20T05:43:12;8.50;99.90
14962;DHT22;56489;53.166;10.864;2022-09-20T05:48:54;8.60;99.90
14962;DHT22;56489;53.166;10.864;2022-09-20T05:52:02;8.60;99.90
14962;DHT22;56489;53.166;10.864;2022-09-20T05:57:52;8.80;99.90
14962;DHT22;56489;53.166;10.864;2022-09-20T06:00:23;8.80;99.90
14962;DHT22;56489;53.166;10.864;2022-09-20T06:03:30;8.90;99.90
14962;DHT22;56489;53.166;10.864;2022-09-20T06:06:24;8.90;99.90
14962;DHT22;56489;53.166;10.864;2022-09-20T06:11:55;8.90;99.90
14962;DHT22;56489;53.166;10.864;2022-09-20T06:14:50;9.10;99.90
14962;DHT22;56489;53.166;10.864;2022-09-20T06:17:41;8.90;99.90
14962;DHT22;56489;53.166;10.864;2022-09-20T06:20:19;9.10;99.90
14962;DHT22;56489;53.166;10.864;2022-09-20T06:22:53;9.20;99.90
14962;DHT22;56489;53.166;10.864;2022-09-20T06:25:25;9.20;99.90
14962;DHT22;56489;53.166;10.864;2022-09-20T06:28:07;9.30;99.90
14962;DHT22;56489;53.166;10.864;2022-09-20T06:30:49;9.40;99.90
14962;DHT22;56489;53.166;10.864;2022-09-20T06:33:24;9.30;99.90
14962;DHT22;56489;53.166;10.864;2022-09-20T06:35:55;9.40;99.90
14962;DHT22;56489;53.166;10.864;2022-09-20T06:39:04;9.50;99.90
14962;DHT22;56489;53.166;10.864;2022-09-20T06:41:51;9.60;99.90
14962;DHT22;56489;53.166;10.864;2022-09-20T06:44:18;9.60;99.90
14962;DHT22;56489;53.166;10.864;2022-09-20T06:46:44;9.60;99.90
14962;DHT22;56489;53.166;10.864;2022-09-20T06:49:11;9.60;99.90
14962;DHT22;56489;53.166;10.864;2022-09-20T06:51:38;9.60;99.90
14962;DHT22;56489;53.166;10.864;2022-09-20T06:54:06;9.60;99.90
14962;DHT22;56489;53.166;10.864;2022-09-20T06:56:37;9.70;99.90
14962;DHT22;56489;53.166;10.864;2022-09-20T06:59:04;9.80;99.90
14962;DHT22;56489;53.166;10.864;2022-09-20T07:01:36;9.90;99.90
14962;DHT22;56489;53.166;10.864;2022-09-20T07:04:04;10.00;99.90
14962;DHT22;56489;53.166;10.864;2022-09-20T07:06:32;10.10;99.90
14962;DHT22;56489;53.166;10.864;2022-09-20T07:08:59;10.10;99.90
14962;DHT22;56489;53.166;10.864;2022-09-20T07:11:26;10.20;99.90
14962;DHT22;56489;53.166;10.864;2022-09-20T07:13:55;10.30;99.90
14962;DHT22;56489;53.166;10.864;2022-09-20T07:16:22;10.40;99.90
14962;DHT22;56489;53.166;10.864;2022-09-20T07:18:49;10.50;99.90
14962;DHT22;56489;53.166;10.864;2022-09-20T07:21:19;10.50;99.90
14962;DHT22;56489;53.166;10.864;2022-09-20T07:23:46;10.50;99.90
14962;DHT22;56489;53.166;10.864;2022-09-20T07:26:18;10.50;99.90
14962;DHT22;56489;53.166;10.864;2022-09-20T07:28:45;10.60;99.90
14962;DHT22;56489;53.166;10.864;2022-09-20T07:31:12;10.60;99.90
14962;DHT22;56489;53.166;10.864;2022-09-20T07:33:39;10.80;99.90
14962;DHT22;56489;53.166;10.864;2022-09-20T07:36:05;10.90;99.90
14962;DHT22;56489;53.166;10.864;2022-09-20T07:38:32;10.90;99.90
14962;DHT22;56489;53.166;10.864;2022-09-20T07:41:00;11.00;99.90
14962;DHT22;56489;53.166;10.864;2022-09-20T07:43:29;11.20;99.90
14962;DHT22;56489;53.166;10.864;2022-09-20T07:45:57;11.20;99.90
14962;DHT22;56489;53.166;10.864;2022-09-20T07:48:27;11.10;99.90
14962;DHT22;56489;53.166;10.864;2022-09-20T07:51:09;11.10;99.90
14962;DHT22;56489;53.166;10.864;2022-09-20T07:53:37;11.30;99.90
14962;DHT22;56489;53.166;10.864;2022-09-20T07:56:13;11.40;99.90
14962;DHT22;56489;53.166;10.864;2022-09-20T07:58:41;11.50;99.90
14962;DHT22;56489;53.166;10.864;2022-09-20T08:01:10;11.60;99.90
14962;DHT22;56489;53.166;10.864;2022-09-20T08:03:38;11.70;99.90
14962;DHT22;56489;53.166;10.864;2022-09-20T08:06:08;11.70;99.90
14962;DHT22;56489;53.166;10.864;2022-09-20T08:08:37;11.70;99.90
14962;DHT22;56489;53.166;10.864;2022-09-20T08:11:15;11.60;99.90
14962;DHT22;56489;53.166;10.864;2022-09-20T08:13:46;11.60;99.90
14962;DHT22;56489;53.166;10.864;2022-09-20T08:16:38;11.70;99.90
14962;DHT22;56489;53.166;10.864;2022-09-20T08:19:05;11.80;99.90
14962;DHT22;56489;53.166;10.864;2022-09-20T08:21:33;11.90;99.90
14962;DHT22;56489;53.166;10.864;2022-09-20T08:24:01;11.90;99.90
14962;DHT22;56489;53.166;10.864;2022-09-20T08:26:29;11.90;99.90
14962;DHT22;56489;53.166;10.864;2022-09-20T08:28:58;12.00;99.90
14962;DHT22;56489;53.166;10.864;2022-09-20T08:31:27;12.10;99.90
14962;DHT22;56489;53.166;10.864;2022-09-20T08:33:57;12.10;99.90
14962;DHT22;56489;53.166;10.864;2022-09-20T08:36:25;12.00;99.90
14962;DHT22;56489;53.166;10.864;2022-09-20T08:38:55;12.10;99.90
14962;DHT22;56489;53.166;10.864;2022-09-20T08:41:45;12.10;99.90
14962;DHT22;56489;53.166;10.864;2022-09-20T08:44:29;12.20;99.90
14962;DHT22;56489;53.166;10.864;2022-09-20T08:47:20;12.20;99.90
14962;DHT22;56489;53.166;10.864;2022-09-20T08:49:49;12.20;99.90
14962;DHT22;56489;53.166;10.864;2022-09-20T08:52:34;12.10;99.90
14962;DHT22;56489;53.166;10.864;2022-09-20T08:55:13;12.10;99.90
14962;DHT22;56489;53.166;10.864;2022-09-20T08:57:43;12.10;99.90
14962;DHT22;56489;53.166;10.864;2022-09-20T09:00:24;12.10;99.90
14962;DHT22;56489;53.166;10.864;2022-09-20T09:02:55;12.10;99.90
14962;DHT22;56489;53.166;10.864;2022-09-20T09:05:35;12.10;99.90
14962;DHT22;56489;53.166;10.864;2022-09-20T09:08:09;12.20;99.90
14962;DHT22;56489;53.166;10.864;2022-09-20T09:10:48;12.20;99.90
14962;DHT22;56489;53.166;10.864;2022-09-20T09:13:46;12.20;99.90
14962;DHT22;56489;53.166;10.864;2022-09-20T09:16:16;12.20;99.90
14962;DHT22;56489;53.166;10.864;2022-09-20T09:18:49;12.30;99.90
14962;DHT22;56489;53.166;10.864;2022-09-20T09:21:21;12.30;99.90
14962;DHT22;56489;53.166;10.864;2022-09-20T09:24:05;12.20;99.90
14962;DHT22;56489;53.166;10.864;2022-09-20T09:26:37;12.20;99.90
14962;DHT22;56489;53.166;10.864;2022-09-20T09:29:15;12.30;99.90
14962;DHT22;56489;53.166;10.864;2022-09-20T09:31:48;12.30;99.90
14962;DHT22;56489;53.166;10.864;2022-09-20T09:34:30;12.40;99.90
14962;DHT22;56489;53.166;10.864;2022-09-20T09:36:57;12.40;99.90
14962;DHT22;56489;53.166;10.864;2022-09-20T09:39:33;12.40;99.90
14962;DHT22;56489;53.166;10.864;2022-09-20T09:42:20;12.40;99.90
14962;DHT22;56489;53.166;10.864;2022-09-20T09:44:49;12.50;99.90
14962;DHT22;56489;53.166;10.864;2022-09-20T09:47:24;12.50;99.90
14962;DHT22;56489;53.166;10.864;2022-09-20T09:49:58;12.70;99.90
14962;DHT22;56489;53.166;10.864;2022-09-20T09:52:31;12.80;99.90
14962;DHT22;56489;53.166;10.864;2022-09-20T09:55:02;12.90;99.90
14962;DHT22;56489;53.166;10.864;2022-09-20T09:57:40;13.00;99.90
14962;DHT22;56489;53.166;10.864;2022-09-20T10:03:44;13.20;99.90
14962;DHT22;56489;53.166;10.864;2022-09-20T10:05:56;13.20;99.90
14962;DHT22;56489;53.166;10.864;2022-09-20T10:08:49;13.30;99.90
14962;DHT22;56489;53.166;10.864;2022-09-20T10:11:45;13.40;99.90
14962;DHT22;56489;53.166;10.864;2022-09-20T10:17:33;13.50;99.90
14962;DHT22;56489;53.166;10.864;2022-09-20T10:23:06;13.50;99.90
14962;DHT22;56489;53.166;10.864;2022-09-20T10:26:17;13.60;99.90
14962;DHT22;56489;53.166;10.864;2022-09-20T10:31:28;13.90;99.90
14962;DHT22;56489;53.166;10.864;2022-09-20T10:36:56;13.90;99.90
14962;DHT22;56489;53.166;10.864;2022-09-20T10:42:29;13.90;99.90
14962;DHT22;56489;53.166;10.864;2022-09-20T10:45:43;13.90;99.90
14962;DHT22;56489;53.166;10.864;2022-09-20T10:48:45;13.90;99.90
14962;DHT22;56489;53.166;10.864;2022-09-20T10:51:35;13.90;99.90
14962;DHT22;56489;53.166;10.864;2022-09-20T10:56:53;14.00;99.90
14962;DHT22;56489;53.166;10.864;2022-09-20T10:59:35;14.00;99.90
14962;DHT22;56489;53.166;10.864;2022-09-20T11:02:20;14.00;99.90
14962;DHT22;56489;53.166;10.864;2022-09-20T11:05:07;14.00;99.90
14962;DHT22;56489;53.166;10.864;2022-09-20T11:07:55;14.00;99.90
14962;DHT22;56489;53.166;10.864;2022-09-20T11:13:39;14.10;99.90
14962;DHT22;56489;53.166;10.864;2022-09-20T11:16:15;14.10;99.90
14962;DHT22;56489;53.166;10.864;2022-09-20T11:19:16;14.10;99.90
14962;DHT22;56489;53.166;10.864;2022-09-20T11:21:51;14.00;99.90
14962;DHT22;56489;53.166;10.864;2022-09-20T11:24:33;14.00;99.90
14962;DHT22;56489;53.166;10.864;2022-09-20T11:27:30;14.00;99.90
14962;DHT22;56489;53.166;10.864;2022-09-20T11:32:34;13.90;99.90
14962;DHT22;56489;53.166;10.864;2022-09-20T11:35:18;14.00;99.90
14962;DHT22;56489;53.166;10.864;2022-09-20T11:37:52;14.10;99.90
14962;DHT22;56489;53.166;10.864;2022-09-20T11:40:33;14.00;99.90
14962;DHT22;56489;53.166;10.864;2022-09-20T11:43:03;13.90;99.90
14962;DHT22;56489;53.166;10.864;2022-09-20T11:45:32;13.80;99.90
14962;DHT22;56489;53.166;10.864;2022-09-20T11:48:24;13.80;99.90
14962;DHT22;56489;53.166;10.864;2022-09-20T11:56:36;14.00;99.90
14962;DHT22;56489;53.166;10.864;2022-09-20T11:59:06;14.10;99.90
14962;DHT22;56489;53.166;10.864;2022-09-20T12:01:54;14.20;99.90
14962;DHT22;56489;53.166;10.864;2022-09-20T12:04:24;14.30;99.90
14962;DHT22;56489;53.166;10.864;2022-09-20T12:09:35;14.50;99.90
14962;DHT22;56489;53.166;10.864;2022-09-20T12:14:54;14.80;99.90
14962;DHT22;56489;53.166;10.864;2022-09-20T12:26:09;15.30;99.90
14962;DHT22;56489;53.166;10.864;2022-09-20T12:28:52;15.20;99.90
14962;DHT22;56489;53.166;10.864;2022-09-20T12:33:59;15.10;99.90
14962;DHT22;56489;53.166;10.864;2022-09-20T12:36:28;15.00;99.90
14962;DHT22;56489;53.166;10.864;2022-09-20T12:39:16;14.90;99.90
14962;DHT22;56489;53.166;10.864;2022-09-20T12:41:57;14.90;99.90
14962;DHT22;56489;53.166;10.864;2022-09-20T12:55:47;14.60;99.90
14962;DHT22;56489;53.166;10.864;2022-09-20T12:58:25;14.50;99.90
14962;DHT22;56489;53.166;10.864;2022-09-20T13:03:38;14.40;99.90
14962;DHT22;56489;53.166;10.864;2022-09-20T13:11:43;14.50;99.90
14962;DHT22;56489;53.166;10.864;2022-09-20T13:16:51;14.70;99.90
14962;DHT22;56489;53.166;10.864;2022-09-20T13:19:23;14.80;99.90
14962;DHT22;56489;53.166;10.864;2022-09-20T13:24:40;14.80;99.90
14962;DHT22;56489;53.166;10.864;2022-09-20T13:27:34;14.70;99.90
14962;DHT22;56489;53.166;10.864;2022-09-20T13:30:21;14.60;99.90
14962;DHT22;56489;53.166;10.864;2022-09-20T13:32:49;14.50;99.90
14962;DHT22;56489;53.166;10.864;2022-09-20T13:35:25;14.40;99.90
14962;DHT22;56489;53.166;10.864;2022-09-20T13:38:01;14.30;99.90
14962;DHT22;56489;53.166;10.864;2022-09-20T13:43:03;14.20;99.90
14962;DHT22;56489;53.166;10.864;2022-09-20T13:45:51;14.20;99.90
14962;DHT22;56489;53.166;10.864;2022-09-20T13:48:23;14.10;99.90
14962;DHT22;56489;53.166;10.864;2022-09-20T13:50:50;14.10;99.90
14962;DHT22;56489;53.166;10.864;2022-09-20T13:53:21;14.10;99.90
14962;DHT22;56489;53.166;10.864;2022-09-20T13:56:15;14.20;99.90
14962;DHT22;56489;53.166;10.864;2022-09-20T13:58:42;14.30;99.90
14962;DHT22;56489;53.166;10.864;2022-09-20T14:01:26;14.40;99.90
14962;DHT22;56489;53.166;10.864;2022-09-20T14:04:06;14.60;99.90
14962;DHT22;56489;53.166;10.864;2022-09-20T14:06:34;14.70;99.90
14962;DHT22;56489;53.166;10.864;2022-09-20T14:09:04;14.80;99.90
14962;DHT22;56489;53.166;10.864;2022-09-20T14:11:37;14.70;99.90
14962;DHT22;56489;53.166;10.864;2022-09-20T14:14:05;14.60;99.90
14962;DHT22;56489;53.166;10.864;2022-09-20T14:16:37;14.60;99.90
14962;DHT22;56489;53.166;10.864;2022-09-20T14:19:06;14.60;99.90
14962;DHT22;56489;53.166;10.864;2022-09-20T14:21:35;14.40;99.90
14962;DHT22;56489;53.166;10.864;2022-09-20T14:24:21;14.30;99.90
14962;DHT22;56489;53.166;10.864;2022-09-20T14:27:17;14.20;99.90
14962;DHT22;56489;53.166;10.864;2022-09-20T14:29:50;14.00;99.90
14962;DHT22;56489;53.166;10.864;2022-09-20T14:34:57;13.90;99.90
14962;DHT22;56489;53.166;10.864;2022-09-20T14:37:28;13.90;99.90
14962;DHT22;56489;53.166;10.864;2022-09-20T14:40:13;14.00;99.90
14962;DHT22;56489;53.166;10.864;2022-09-20T14:42:44;14.10;99.90
14962;DHT22;56489;53.166;10.864;2022-09-20T14:45:32;14.10;99.90
14962;DHT22;56489;53.166;10.864;2022-09-20T14:50:38;14.30;99.90
14962;DHT22;56489;53.166;10.864;2022-09-20T15:01:31;14.40;99.90
14962;DHT22;56489;53.166;10.864;2022-09-20T15:04:04;14.50;99.90
14962;DHT22;56489;53.166;10.864;2022-09-20T15:06:34;14.40;99.90
14962;DHT22;56489;53.166;10.864;2022-09-20T15:09:01;14.40;99.90
14962;DHT22;56489;53.166;10.864;2022-09-20T15:11:27;14.30;99.90
14962;DHT22;56489;53.166;10.864;2022-09-20T15:13:55;14.50;99.90
14962;DHT22;56489;53.166;10.864;2022-09-20T15:16:22;14.50;99.90
14962;DHT22;56489;53.166;10.864;2022-09-20T15:18:49;14.50;99.90
14962;DHT22;56489;53.166;10.864;2022-09-20T15:21:16;14.50;99.90
14962;DHT22;56489;53.166;10.864;2022-09-20T15:23:43;14.50;99.90
14962;DHT22;56489;53.166;10.864;2022-09-20T15:26:11;14.50;99.90
14962;DHT22;56489;53.166;10.864;2022-09-20T15:28:38;14.50;99.90
14962;DHT22;56489;53.166;10.864;2022-09-20T15:31:06;14.50;99.90
14962;DHT22;56489;53.166;10.864;2022-09-20T15:33:32;14.50;99.90
14962;DHT22;56489;53.166;10.864;2022-09-20T15:36:03;14.50;99.90
14962;DHT22;56489;53.166;10.864;2022-09-20T15:38:30;14.50;99.90
14962;DHT22;56489;53.166;10.864;2022-09-20T15:41:00;14.50;99.90
14962;DHT22;56489;53.166;10.864;2022-09-20T15:43:29;14.50;99.90
14962;DHT22;56489;53.166;10.864;2022-09-20T15:45:58;14.60;99.90
14962;DHT22;56489;53.166;10.864;2022-09-20T15:48:29;14.40;99.90
14962;DHT22;56489;53.166;10.864;2022-09-20T15:51:03;14.40;99.90
14962;DHT22;56489;53.166;10.864;2022-09-20T15:53:37;14.30;99.90
14962;DHT22;56489;53.166;10.864;2022-09-20T15:58:44;14.20;99.90
14962;DHT22;56489;53.166;10.864;2022-09-20T16:01:13;14.30;99.90
14962;DHT22;56489;53.166;10.864;2022-09-20T16:03:44;14.20;99.90
14962;DHT22;56489;53.166;10.864;2022-09-20T16:06:11;14.20;99.90
14962;DHT22;56489;53.166;10.864;2022-09-20T16:08:40;14.10;99.90
14962;DHT22;56489;53.166;10.864;2022-09-20T16:11:11;14.00;99.90
14962;DHT22;56489;53.166;10.864;2022-09-20T16:13:38;14.10;99.90
14962;DHT22;56489;53.166;10.864;2022-09-20T16:16:06;14.00;99.90
14962;DHT22;56489;53.166;10.864;2022-09-20T16:18:35;13.90;99.90
14962;DHT22;56489;53.166;10.864;2022-09-20T16:21:21;13.80;99.90
14962;DHT22;56489;53.166;10.864;2022-09-20T16:23:50;13.70;99.90
14962;DHT22;56489;53.166;10.864;2022-09-20T16:26:18;13.70;99.90
14962;DHT22;56489;53.166;10.864;2022-09-20T16:28:45;13.60;99.90
14962;DHT22;56489;53.166;10.864;2022-09-20T16:31:39;13.40;99.90
14962;DHT22;56489;53.166;10.864;2022-09-20T16:34:15;13.40;99.90
14962;DHT22;56489;53.166;10.864;2022-09-20T16:36:46;13.30;99.90
14962;DHT22;56489;53.166;10.864;2022-09-20T16:39:15;13.10;99.90
14962;DHT22;56489;53.166;10.864;2022-09-20T16:41:44;13.00;99.90
14962;DHT22;56489;53.166;10.864;2022-09-20T16:44:13;12.90;99.90
14962;DHT22;56489;53.166;10.864;2022-09-20T16:46:40;12.80;99.90
14962;DHT22;56489;53.166;10.864;2022-09-20T16:49:08;12.80;99.90
14962;DHT22;56489;53.166;10.864;2022-09-20T16:51:38;12.70;99.90
14962;DHT22;56489;53.166;10.864;2022-09-20T16:54:10;12.70;99.90
14962;DHT22;56489;53.166;10.864;2022-09-20T16:56:40;12.50;99.90
14962;DHT22;56489;53.166;10.864;2022-09-20T16:59:07;12.40;99.90
14962;DHT22;56489;53.166;10.864;2022-09-20T17:01:36;12.30;99.90
14962;DHT22;56489;53.166;10.864;2022-09-20T17:04:04;12.30;99.90
14962;DHT22;56489;53.166;10.864;2022-09-20T17:06:32;12.20;99.90
14962;DHT22;56489;53.166;10.864;2022-09-20T17:09:01;12.00;99.90
14962;DHT22;56489;53.166;10.864;2022-09-20T17:11:30;11.90;99.90
14962;DHT22;56489;53.166;10.864;2022-09-20T17:13:57;11.80;99.90
14962;DHT22;56489;53.166;10.864;2022-09-20T17:16:30;11.80;99.90
14962;DHT22;56489;53.166;10.864;2022-09-20T17:19:00;11.70;99.90
14962;DHT22;56489;53.166;10.864;2022-09-20T17:21:28;11.50;99.90
14962;DHT22;56489;53.166;10.864;2022-09-20T17:23:57;11.40;99.90
14962;DHT22;56489;53.166;10.864;2022-09-20T17:26:30;11.30;99.90
14962;DHT22;56489;53.166;10.864;2022-09-20T17:29:01;11.20;99.90
14962;DHT22;56489;53.166;10.864;2022-09-20T17:31:32;11.10;99.90
14962;DHT22;56489;53.166;10.864;2022-09-20T17:34:04;11.00;99.90
14962;DHT22;56489;53.166;10.864;2022-09-20T17:36:44;10.90;99.90
14962;DHT22;56489;53.166;10.864;2022-09-20T17:39:12;10.70;99.90
14962;DHT22;56489;53.166;10.864;2022-09-20T17:41:41;10.70;99.90
14962;DHT22;56489;53.166;10.864;2022-09-20T17:44:08;10.50;99.90
14962;DHT22;56489;53.166;10.864;2022-09-20T17:46:39;10.40;99.90
14962;DHT22;56489;53.166;10.864;2022-09-20T17:49:12;10.30;99.90
14962;DHT22;56489;53.166;10.864;2022-09-20T17:51:44;10.30;99.90
14962;DHT22;56489;53.166;10.864;2022-09-20T17:54:12;10.30;99.90
14962;DHT22;56489;53.166;10.864;2022-09-20T17:56:44;10.20;99.90
14962;DHT22;56489;53.166;10.864;2022-09-20T17:59:13;10.10;99.90
14962;DHT22;56489;53.166;10.864;2022-09-20T18:01:42;10.00;99.90
14962;DHT22;56489;53.166;10.864;2022-09-20T18:04:10;9.90;99.90
14962;DHT22;56489;53.166;10.864;2022-09-20T18:06:55;9.80;99.90
14962;DHT22;56489;53.166;10.864;2022-09-20T18:09:23;9.70;99.90
14962;DHT22;56489;53.166;10.864;2022-09-20T18:11:52;9.60;99.90
14962;DHT22;56489;53.166;10.864;2022-09-20T18:14:21;9.50;99.90
14962;DHT22;56489;53.166;10.864;2022-09-20T18:16:51;9.50;99.90
14962;DHT22;56489;53.166;10.864;2022-09-20T18:19:18;9.50;99.90
14962;DHT22;56489;53.166;10.864;2022-09-20T18:21:48;9.50;99.90
14962;DHT22;56489;53.166;10.864;2022-09-20T18:24:15;9.40;99.90
14962;DHT22;56489;53.166;10.864;2022-09-20T18:26:41;9.30;99.90
14962;DHT22;56489;53.166;10.864;2022-09-20T18:29:14;9.40;99.90
14962;DHT22;56489;53.166;10.864;2022-09-20T18:31:51;9.30;99.90
14962;DHT22;56489;53.166;10.864;2022-09-20T18:34:21;9.20;99.90
14962;DHT22;56489;53.166;10.864;2022-09-20T18:36:53;9.10;99.90
14962;DHT22;56489;53.166;10.864;2022-09-20T18:39:21;9.10;99.90
14962;DHT22;56489;53.166;10.864;2022-09-20T18:41:49;9.00;99.90
14962;DHT22;56489;53.166;10.864;2022-09-20T18:44:16;9.00;99.90
14962;DHT22;56489;53.166;10.864;2022-09-20T18:46:45;8.90;99.90
14962;DHT22;56489;53.166;10.864;2022-09-20T18:49:13;8.90;99.90
14962;DHT22;56489;53.166;10.864;2022-09-20T18:51:42;8.80;99.90
14962;DHT22;56489;53.166;10.864;2022-09-20T18:54:10;8.80;99.90
14962;DHT22;56489;53.166;10.864;2022-09-20T18:56:43;8.80;99.90
14962;DHT22;56489;53.166;10.864;2022-09-20T18:59:18;8.70;99.90
14962;DHT22;56489;53.166;10.864;2022-09-20T19:12:47;8.60;99.90
14962;DHT22;56489;53.166;10.864;2022-09-20T19:15:50;8.60;99.90
14962;DHT22;56489;53.166;10.864;2022-09-20T19:26:58;8.30;99.90
14962;DHT22;56489;53.166;10.864;2022-09-20T19:29:26;8.30;99.90
14962;DHT22;56489;53.166;10.864;2022-09-20T19:31:56;8.30;99.90
14962;DHT22;56489;53.166;10.864;2022-09-20T19:34:28;8.30;99.90
14962;DHT22;56489;53.166;10.864;2022-09-20T19:37:13;8.30;99.90
14962;DHT22;56489;53.166;10.864;2022-09-20T19:48:47;8.30;99.90
14962;DHT22;56489;53.166;10.864;2022-09-20T19:51:21;8.30;99.90
14962;DHT22;56489;53.166;10.864;2022-09-20T19:53:48;8.30;99.90
14962;DHT22;56489;53.166;10.864;2022-09-20T19:56:42;8.30;99.90